Dillingham Airport
PADL : now visible

Airfield :











YOU CAN JOIN US ON...

 
LOGIN :

Register | Disclaimer

   EN    FR    IT 

 









Legend :    VFR   Marginal VFR   IFR   Intensive IFR   Very Intensive IFR
Visi :
Ceiling :
>= 8 km
>= 3000ft
5 to 8 km
1000 to 3000 ft
1500m to 5 km
500 to 1000 ft
800 to 1500m
200 to 500 ft
< 800m
< 200 ft
Symbols :   Thunderstorms  Fog  Heavy snow  Heavy precipitations  Wind > 20 kt






- Airport Elevation : 81 ft
- IATA code : DLG


PADL - Dillingham

CURRENT METAR :
  • 010556Z AUTO 18008KT 10SM OVC020 16/14 A2999 RMK AO2 SLP159 60000 T01560144 10172 20150 53005

EXPIRED METARs :
  • 010456Z 19008KT 10SM OVC020 16/15 A2999 RMK AO2 SLP156 T01560150
  • 010356Z 17008KT 10SM SCT010 OVC030 16/15 A2998 RMK AO2 RAB04E17 SLP154 P0000 T01560150

TAF PADL
Valid from the 01 at 06:00 until the 02 at 06:00 UTC


010534Z 0106/0206 18007KT P6SM OVC025
FM012000 17015G22KT P6SM BKN045
PAZA FIR / North America



MET'MAP, your aeronautical weather chart ! - Copyright ORBIFLY December 2007 - Disclaimer

ORBIFLY MET'MAP TEAM :

Programming & Development : Alexandra Zaïnal
Concept & original design : Baudouin d'Aumeries
Assistance for programming : Marc-Olivier Méhu
Technical & hardware support : Manuel Goepfert

Contact : metmap@orbifly.com




SOURCES & CREDITS :

   NOAA       Earth
Advisory